createdAt,value
2017-09-03T00:01:00.994Z,12.87
2017-09-03T00:05:56.685Z,12.94
2017-09-03T00:10:52.233Z,12.90
2017-09-03T00:15:48.435Z,12.87
2017-09-03T00:20:45.248Z,12.86
2017-09-03T00:25:40.831Z,12.79
2017-09-03T00:30:36.710Z,12.79
2017-09-03T00:35:33.135Z,12.79
2017-09-03T00:40:29.008Z,12.85
2017-09-03T00:45:24.863Z,12.65
2017-09-03T00:50:21.662Z,12.53
2017-09-03T00:55:18.190Z,12.58
2017-09-03T01:00:14.267Z,12.53
2017-09-03T01:05:10.660Z,12.45
2017-09-03T01:10:06.855Z,12.53
2017-09-03T01:15:02.708Z,12.37
2017-09-03T01:19:58.456Z,12.31
2017-09-03T01:24:55.372Z,12.29
2017-09-03T01:29:50.799Z,12.35
2017-09-03T01:34:46.601Z,12.21
2017-09-03T01:39:42.523Z,12.35
2017-09-03T01:44:38.699Z,12.21
2017-09-03T01:49:34.536Z,12.12
2017-09-03T01:54:29.928Z,12.15
2017-09-03T01:59:25.630Z,12.13
2017-09-03T02:04:22.544Z,12.10
2017-09-03T02:09:19.006Z,12.02
2017-09-03T02:14:14.213Z,11.80
2017-09-03T02:19:10.042Z,11.88
2017-09-03T02:24:06.092Z,11.69
2017-09-03T02:29:02.601Z,11.63
2017-09-03T02:33:58.345Z,11.66
2017-09-03T02:38:54.286Z,11.68
2017-09-03T02:43:51.484Z,11.55
2017-09-03T02:48:48.037Z,11.77
2017-09-03T02:53:44.635Z,11.97
2017-09-03T02:58:41.381Z,12.04
2017-09-03T03:03:37.061Z,11.78
2017-09-03T03:08:32.877Z,11.88
2017-09-03T03:13:29.678Z,11.88
2017-09-03T03:18:25.376Z,11.75
2017-09-03T03:23:20.843Z,11.40
2017-09-03T03:28:16.709Z,11.36
2017-09-03T03:33:12.498Z,11.23
2017-09-03T03:38:08.293Z,10.96
2017-09-03T03:43:04.935Z,10.90
2017-09-03T03:48:00.381Z,11.02
2017-09-03T03:52:57.890Z,10.86
2017-09-03T03:57:54.419Z,10.81
2017-09-03T04:02:50.431Z,10.78
2017-09-03T04:07:46.347Z,10.87
2017-09-03T04:12:43.282Z,11.15
2017-09-03T04:17:38.779Z,11.35
2017-09-03T04:22:35.955Z,11.18
2017-09-03T04:27:31.614Z,11.54
2017-09-03T04:32:27.510Z,11.41
2017-09-03T04:37:23.237Z,11.54
2017-09-03T04:42:21.047Z,11.81
2017-09-03T04:47:16.170Z,11.95
2017-09-03T04:52:14.806Z,12.03
2017-09-03T04:57:09.800Z,12.20
2017-09-03T05:02:05.809Z,12.18
2017-09-03T05:07:01.894Z,12.15
2017-09-03T05:11:58.798Z,12.02
2017-09-03T05:16:55.812Z,11.94
2017-09-03T05:21:52.306Z,11.86
2017-09-03T05:26:47.938Z,11.41
2017-09-03T05:31:43.409Z,11.68
2017-09-03T05:36:39.411Z,11.75
2017-09-03T05:41:35.378Z,11.94
2017-09-03T05:46:32.055Z,11.84
2017-09-03T05:51:29.335Z,11.84
2017-09-03T05:56:26.052Z,12.02
2017-09-03T06:01:21.864Z,12.24
2017-09-03T06:06:18.898Z,12.43
2017-09-03T06:11:14.504Z,12.40
2017-09-03T06:16:12.164Z,12.93
2017-09-03T06:21:08.170Z,13.33
2017-09-03T06:26:05.076Z,13.25
2017-09-03T06:31:02.108Z,13.23
2017-09-03T06:35:57.888Z,13.44
2017-09-03T06:40:53.795Z,13.63
2017-09-03T06:45:50.183Z,13.85
2017-09-03T06:50:46.217Z,13.86
2017-09-03T06:55:42.073Z,13.96
2017-09-03T07:00:38.891Z,14.10
2017-09-03T07:05:34.431Z,14.33
2017-09-03T07:10:30.532Z,14.45
2017-09-03T07:15:27.421Z,14.70
2017-09-03T07:20:23.364Z,14.55
2017-09-03T07:25:19.431Z,14.84
2017-09-03T07:30:15.475Z,14.96
2017-09-03T07:35:11.658Z,15.07
2017-09-03T07:40:07.715Z,15.24
2017-09-03T07:45:03.855Z,15.40
2017-09-03T07:49:59.652Z,15.52
2017-09-03T07:54:55.532Z,15.64
2017-09-03T07:59:52.286Z,15.80
2017-09-03T08:04:48.874Z,16.20
2017-09-03T08:09:45.135Z,16.76
2017-09-03T08:14:41.585Z,17.38
2017-09-03T08:19:37.760Z,17.95
2017-09-03T08:24:34.704Z,18.08
2017-09-03T08:29:30.391Z,17.71
2017-09-03T08:34:27.338Z,17.33
2017-09-03T08:39:24.901Z,17.11
2017-09-03T08:44:20.352Z,17.04
2017-09-03T08:49:16.119Z,17.02
2017-09-03T08:54:12.982Z,17.05
2017-09-03T08:59:08.524Z,16.99
2017-09-03T09:04:04.355Z,17.02
2017-09-03T09:09:01.153Z,17.06
2017-09-03T09:13:57.946Z,17.14
2017-09-03T09:18:54.429Z,17.26
2017-09-03T09:23:50.171Z,17.45
2017-09-03T09:28:47.633Z,17.71
2017-09-03T09:33:44.307Z,17.76
2017-09-03T09:38:39.927Z,18.05
2017-09-03T09:43:36.282Z,18.11
2017-09-03T09:48:32.365Z,18.26
2017-09-03T09:53:30.513Z,18.25
2017-09-03T09:58:25.879Z,18.31
2017-09-03T10:03:22.076Z,18.68
2017-09-03T10:08:19.509Z,19.37
2017-09-03T10:13:18.114Z,20.51
2017-09-03T10:18:15.924Z,21.42
2017-09-03T10:23:13.824Z,22.35
2017-09-03T10:28:13.245Z,22.84
2017-09-03T10:33:09.943Z,23.18
2017-09-03T10:38:06.627Z,22.38
2017-09-03T10:43:01.085Z,21.91
2017-09-03T10:47:56.092Z,21.27
2017-09-03T10:52:52.829Z,22.06
2017-09-03T10:57:50.497Z,22.48
2017-09-03T11:02:46.373Z,22.99
2017-09-03T11:07:42.720Z,22.78
2017-09-03T11:12:37.783Z,21.91
2017-09-03T11:17:33.344Z,21.03
2017-09-03T11:22:29.504Z,22.11
2017-09-03T11:27:29.034Z,22.78
2017-09-03T11:32:27.602Z,23.71
2017-09-03T11:37:25.712Z,24.51
2017-09-03T11:42:22.357Z,24.05
2017-09-03T11:47:19.284Z,23.65
2017-09-03T11:52:15.053Z,23.23
2017-09-03T11:57:09.848Z,22.57
2017-09-03T12:02:07.088Z,21.80
2017-09-03T12:07:01.550Z,21.79
2017-09-03T12:11:56.580Z,21.46
2017-09-03T12:16:52.139Z,21.29
2017-09-03T12:21:48.340Z,21.27
2017-09-03T12:26:43.414Z,20.95
2017-09-03T12:31:39.362Z,20.95
2017-09-03T12:36:35.755Z,21.00
2017-09-03T12:41:31.083Z,20.81
2017-09-03T12:46:26.724Z,20.77
2017-09-03T12:51:22.821Z,20.84
2017-09-03T12:56:20.129Z,20.84
2017-09-03T13:01:16.751Z,20.97
2017-09-03T13:06:12.509Z,21.06
2017-09-03T13:11:08.418Z,20.92
2017-09-03T13:16:04.570Z,20.96
2017-09-03T13:21:00.586Z,20.82
2017-09-03T13:25:58.201Z,20.69
2017-09-03T13:30:55.182Z,20.72
2017-09-03T13:35:51.793Z,20.52
2017-09-03T13:40:47.156Z,20.65
2017-09-03T13:45:44.418Z,20.63
2017-09-03T13:50:39.760Z,20.70
2017-09-03T13:55:36.564Z,20.51
2017-09-03T14:00:32.358Z,20.85
2017-09-03T14:05:29.567Z,21.03
2017-09-03T14:10:25.100Z,20.97
2017-09-03T14:15:21.135Z,21.25
2017-09-03T14:20:17.273Z,21.25
2017-09-03T14:25:13.039Z,21.18
2017-09-03T14:30:10.224Z,21.30
2017-09-03T14:35:05.942Z,21.39
2017-09-03T14:40:01.574Z,21.37
2017-09-03T14:44:57.946Z,21.20
2017-09-03T14:49:54.998Z,21.36
2017-09-03T14:54:50.417Z,21.33
2017-09-03T14:59:46.537Z,21.24
2017-09-03T15:04:42.686Z,21.33
2017-09-03T15:09:38.702Z,21.36
2017-09-03T15:14:35.845Z,21.42
2017-09-03T15:19:31.404Z,21.50
2017-09-03T15:24:27.872Z,21.30
2017-09-03T15:29:25.682Z,21.25
2017-09-03T15:34:21.006Z,21.07
2017-09-03T15:39:16.496Z,20.77
2017-09-03T15:44:13.295Z,20.69
2017-09-03T15:49:09.975Z,20.55
2017-09-03T15:54:05.705Z,20.43
2017-09-03T15:59:01.431Z,20.32
2017-09-03T16:03:57.515Z,20.18
2017-09-03T16:08:54.448Z,19.99
2017-09-03T16:13:51.047Z,20.02
2017-09-03T16:18:46.603Z,19.94
2017-09-03T16:23:42.361Z,20.00
2017-09-03T16:28:37.917Z,19.95
2017-09-03T16:33:34.909Z,19.82
2017-09-03T16:38:30.497Z,19.92
2017-09-03T16:43:26.263Z,19.86
2017-09-03T16:48:23.657Z,19.82
2017-09-03T16:53:19.258Z,19.76
2017-09-03T16:58:15.846Z,19.85
2017-09-03T17:03:12.477Z,19.82
2017-09-03T17:08:09.212Z,19.67
2017-09-03T17:13:05.617Z,19.64
2017-09-03T17:18:01.013Z,19.33
2017-09-03T17:22:57.005Z,19.34
2017-09-03T17:27:57.161Z,19.14
2017-09-03T17:32:51.930Z,19.04
2017-09-03T17:37:47.912Z,18.88
2017-09-03T17:42:43.572Z,18.78
2017-09-03T17:47:39.431Z,18.65
2017-09-03T17:52:35.378Z,18.43
2017-09-03T17:57:31.807Z,18.43
2017-09-03T18:02:28.251Z,18.33
2017-09-03T18:07:23.567Z,18.34
2017-09-03T18:12:19.604Z,18.15
2017-09-03T18:17:15.305Z,18.01
2017-09-03T18:22:12.835Z,17.74
2017-09-03T18:27:08.482Z,17.57
2017-09-03T18:32:04.048Z,17.36
2017-09-03T18:37:00.923Z,17.30
2017-09-03T18:41:56.235Z,17.26
2017-09-03T18:46:53.194Z,17.15
2017-09-03T18:51:49.177Z,17.06
2017-09-03T18:56:44.781Z,16.79
2017-09-03T19:01:41.485Z,16.86
2017-09-03T19:06:37.933Z,16.78
2017-09-03T19:11:33.601Z,16.74
2017-09-03T19:16:28.952Z,16.56
2017-09-03T19:21:25.952Z,16.42
2017-09-03T19:26:21.844Z,16.32
2017-09-03T19:31:18.047Z,16.17
2017-09-03T19:36:13.781Z,16.05
2017-09-03T19:41:09.432Z,16.04
2017-09-03T19:46:05.548Z,16.01
2017-09-03T19:51:02.348Z,16.00
2017-09-03T19:55:57.574Z,16.00
2017-09-03T20:00:53.165Z,15.90
2017-09-03T20:05:50.293Z,15.83
2017-09-03T20:10:47.174Z,15.97
2017-09-03T20:15:44.182Z,16.10
2017-09-03T20:20:39.901Z,16.16
2017-09-03T20:25:35.976Z,16.13
2017-09-03T20:30:31.812Z,16.09
2017-09-03T20:35:29.086Z,16.04
2017-09-03T20:40:26.532Z,15.88
2017-09-03T20:45:21.974Z,15.80
2017-09-03T20:50:17.771Z,15.86
2017-09-03T20:55:13.523Z,15.83
2017-09-03T21:00:09.882Z,15.92
2017-09-03T21:05:05.580Z,15.95
2017-09-03T21:10:01.649Z,15.83
2017-09-03T21:14:58.108Z,15.80
2017-09-03T21:19:53.890Z,15.70
2017-09-03T21:24:51.878Z,15.65
2017-09-03T21:29:47.324Z,15.61
2017-09-03T21:34:43.118Z,15.67
2017-09-03T21:39:38.994Z,15.73
2017-09-03T21:44:34.869Z,15.75
2017-09-03T21:49:31.578Z,15.62
2017-09-03T21:54:27.417Z,15.54
2017-09-03T21:59:24.215Z,15.54
2017-09-03T22:04:21.324Z,15.47
2017-09-03T22:09:17.889Z,15.43
2017-09-03T22:14:13.423Z,15.49
2017-09-03T22:19:09.386Z,15.54
2017-09-03T22:24:06.284Z,15.47
2017-09-03T22:29:01.710Z,15.51
2017-09-03T22:33:57.606Z,15.62
2017-09-03T22:38:53.296Z,15.75
2017-09-03T22:43:49.488Z,14.97
2017-09-03T22:48:45.307Z,14.43
2017-09-03T22:53:40.849Z,14.35
2017-09-03T22:58:37.530Z,14.08
2017-09-03T23:03:32.884Z,14.04
2017-09-03T23:08:28.489Z,13.89
2017-09-03T23:13:24.356Z,13.85
2017-09-03T23:18:20.996Z,13.67
2017-09-03T23:23:16.449Z,13.49
2017-09-03T23:28:12.350Z,13.46
2017-09-03T23:33:08.092Z,13.49
2017-09-03T23:38:03.775Z,13.35
2017-09-03T23:42:59.818Z,13.52
2017-09-03T23:47:56.353Z,13.46
2017-09-03T23:52:52.002Z,13.42
2017-09-03T23:57:48.071Z,13.70
